sensor_id;sensor_type;location;lat;lon;timestamp;pressure;altitude;pressure_sealevel;temperature;humidity
77793;BME280;66983;51.438;5.438;2024-01-15T00:02:18;100369.19;;;3.86;100.00
77793;BME280;66983;51.438;5.438;2024-01-15T00:04:43;100364.78;;;3.86;100.00
77793;BME280;66983;51.438;5.438;2024-01-15T00:07:09;100369.13;;;3.89;100.00
77793;BME280;66983;51.438;5.438;2024-01-15T00:09:35;100354.25;;;3.85;100.00
77793;BME280;66983;51.438;5.438;2024-01-15T00:12:01;100361.13;;;3.92;100.00
77793;BME280;66983;51.438;5.438;2024-01-15T00:14:28;100355.78;;;3.95;100.00
77793;BME280;66983;51.438;5.438;2024-01-15T00:16:54;100340.13;;;3.89;100.00
77793;BME280;66983;51.438;5.438;2024-01-15T00:19:24;100352.22;;;3.99;100.00
77793;BME280;66983;51.438;5.438;2024-01-15T00:21:50;100339.94;;;3.96;100.00
77793;BME280;66983;51.438;5.438;2024-01-15T00:24:16;100342.56;;;3.98;100.00
77793;BME280;66983;51.438;5.438;2024-01-15T00:26:41;100335.56;;;3.97;100.00
77793;BME280;66983;51.438;5.438;2024-01-15T00:29:08;100340.69;;;4.03;100.00
77793;BME280;66983;51.438;5.438;2024-01-15T00:31:34;100329.44;;;3.95;100.00
77793;BME280;66983;51.438;5.438;2024-01-15T00:34:00;100334.63;;;3.99;100.00
77793;BME280;66983;51.438;5.438;2024-01-15T00:36:26;100328.47;;;3.99;100.00
77793;BME280;66983;51.438;5.438;2024-01-15T00:38:52;100330.22;;;4.00;100.00
77793;BME280;66983;51.438;5.438;2024-01-15T00:41:18;100327.59;;;3.98;100.00
77793;BME280;66983;51.438;5.438;2024-01-15T00:43:44;100320.59;;;3.97;100.00
77793;BME280;66983;51.438;5.438;2024-01-15T00:46:10;100313.66;;;3.93;100.00
77793;BME280;66983;51.438;5.438;2024-01-15T00:48:36;100315.31;;;3.97;100.00
77793;BME280;66983;51.438;5.438;2024-01-15T00:51:03;100316.25;;;3.95;100.00
77793;BME280;66983;51.438;5.438;2024-01-15T00:53:29;100314.50;;;3.94;100.00
77793;BME280;66983;51.438;5.438;2024-01-15T00:55:54;100305.72;;;3.95;100.00
77793;BME280;66983;51.438;5.438;2024-01-15T00:58:20;100305.66;;;3.98;100.00
77793;BME280;66983;51.438;5.438;2024-01-15T01:00:46;100300.38;;;3.98;100.00
77793;BME280;66983;51.438;5.438;2024-01-15T01:03:11;100303.84;;;4.00;100.00
77793;BME280;66983;51.438;5.438;2024-01-15T01:05:37;100299.53;;;3.96;100.00
77793;BME280;66983;51.438;5.438;2024-01-15T01:08:03;100313.56;;;3.98;100.00
77793;BME280;66983;51.438;5.438;2024-01-15T01:10:28;100305.59;;;4.01;100.00
77793;BME280;66983;51.438;5.438;2024-01-15T01:12:54;100302.06;;;4.02;100.00
77793;BME280;66983;51.438;5.438;2024-01-15T01:15:19;100302.94;;;4.01;100.00
77793;BME280;66983;51.438;5.438;2024-01-15T01:17:45;100281.97;;;3.95;100.00
77793;BME280;66983;51.438;5.438;2024-01-15T01:20:11;100300.22;;;4.05;100.00
77793;BME280;66983;51.438;5.438;2024-01-15T01:22:37;100284.38;;;4.07;100.00
77793;BME280;66983;51.438;5.438;2024-01-15T01:25:03;100288.69;;;4.11;100.00
77793;BME280;66983;51.438;5.438;2024-01-15T01:27:28;100292.25;;;4.08;100.00
77793;BME280;66983;51.438;5.438;2024-01-15T01:29:54;100285.28;;;4.06;100.00
77793;BME280;66983;51.438;5.438;2024-01-15T01:32:19;100287.06;;;4.04;100.00
77793;BME280;66983;51.438;5.438;2024-01-15T01:34:45;100287.00;;;4.07;100.00
77793;BME280;66983;51.438;5.438;2024-01-15T01:37:11;100289.59;;;4.10;100.00
77793;BME280;66983;51.438;5.438;2024-01-15T01:39:40;100291.31;;;4.11;100.00
77793;BME280;66983;51.438;5.438;2024-01-15T01:42:06;100290.56;;;4.06;100.00
77793;BME280;66983;51.438;5.438;2024-01-15T01:44:32;100294.00;;;4.09;100.00
77793;BME280;66983;51.438;5.438;2024-01-15T01:46:59;100291.38;;;4.08;100.00
77793;BME280;66983;51.438;5.438;2024-01-15T01:49:27;100291.38;;;4.08;100.00
77793;BME280;66983;51.438;5.438;2024-01-15T01:51:57;100287.84;;;4.09;100.00
77793;BME280;66983;51.438;5.438;2024-01-15T01:54:25;100291.31;;;4.11;100.00
77793;BME280;66983;51.438;5.438;2024-01-15T01:56:52;100284.47;;;4.02;100.00
77793;BME280;66983;51.438;5.438;2024-01-15T01:59:18;100292.28;;;4.07;100.00
77793;BME280;66983;51.438;5.438;2024-01-15T02:01:46;100292.31;;;4.05;100.00
77793;BME280;66983;51.438;5.438;2024-01-15T02:04:12;100292.34;;;4.04;100.00
77793;BME280;66983;51.438;5.438;2024-01-15T02:06:38;100296.78;;;4.02;100.00
77793;BME280;66983;51.438;5.438;2024-01-15T02:09:03;100287.06;;;4.04;100.00
77793;BME280;66983;51.438;5.438;2024-01-15T02:11:31;100288.91;;;4.00;100.00
77793;BME280;66983;51.438;5.438;2024-01-15T02:13:56;100297.63;;;4.04;100.00
77793;BME280;66983;51.438;5.438;2024-01-15T02:16:22;100279.09;;;4.07;100.00
77793;BME280;66983;51.438;5.438;2024-01-15T02:18:48;100279.19;;;4.02;100.00
77793;BME280;66983;51.438;5.438;2024-01-15T02:21:13;100287.97;;;4.03;100.00
77793;BME280;66983;51.438;5.438;2024-01-15T02:23:39;100289.78;;;4.01;100.00
77793;BME280;66983;51.438;5.438;2024-01-15T02:26:05;100281.03;;;3.99;100.00
77793;BME280;66983;51.438;5.438;2024-01-15T02:28:32;100289.72;;;4.04;100.00
77793;BME280;66983;51.438;5.438;2024-01-15T02:30:58;100285.34;;;4.03;100.00
77793;BME280;66983;51.438;5.438;2024-01-15T02:33:24;100286.22;;;4.02;100.00
77793;BME280;66983;51.438;5.438;2024-01-15T02:35:49;100277.44;;;4.03;100.00
77793;BME280;66983;51.438;5.438;2024-01-15T02:38:18;100270.69;;;3.90;100.00
77793;BME280;66983;51.438;5.438;2024-01-15T02:40:44;100274.00;;;3.98;100.00
77793;BME280;66983;51.438;5.438;2024-01-15T02:43:10;100284.63;;;3.95;100.00
77793;BME280;66983;51.438;5.438;2024-01-15T02:45:36;100274.09;;;3.93;100.00
77793;BME280;66983;51.438;5.438;2024-01-15T02:48:02;100274.13;;;3.92;100.00
77793;BME280;66983;51.438;5.438;2024-01-15T02:50:27;100274.13;;;3.92;100.00
77793;BME280;66983;51.438;5.438;2024-01-15T02:52:53;100268.88;;;3.92;100.00
77793;BME280;66983;51.438;5.438;2024-01-15T02:55:19;100260.22;;;3.87;100.00
77793;BME280;66983;51.438;5.438;2024-01-15T02:57:44;100275.81;;;3.96;100.00
77793;BME280;66983;51.438;5.438;2024-01-15T03:00:10;100270.63;;;3.91;100.00
77793;BME280;66983;51.438;5.438;2024-01-15T03:02:37;100283.88;;;3.90;100.00
77793;BME280;66983;51.438;5.438;2024-01-15T03:05:09;100270.81;;;3.84;100.00
77793;BME280;66983;51.438;5.438;2024-01-15T03:07:34;100282.94;;;3.91;100.00
77793;BME280;66983;51.438;5.438;2024-01-15T03:10:00;100278.59;;;3.90;100.00
77793;BME280;66983;51.438;5.438;2024-01-15T03:12:25;100274.16;;;3.90;100.00
77793;BME280;66983;51.438;5.438;2024-01-15T03:14:51;100287.25;;;3.95;100.00
77793;BME280;66983;51.438;5.438;2024-01-15T03:17:16;100287.28;;;3.93;100.00
77793;BME280;66983;51.438;5.438;2024-01-15T03:19:42;100278.47;;;3.94;100.00
77793;BME280;66983;51.438;5.438;2024-01-15T03:22:07;100289.84;;;3.98;100.00
77793;BME280;66983;51.438;5.438;2024-01-15T03:24:34;100293.31;;;4.00;100.00
77793;BME280;66983;51.438;5.438;2024-01-15T03:27:00;100285.44;;;3.98;100.00
77793;BME280;66983;51.438;5.438;2024-01-15T03:29:26;100290.66;;;4.00;100.00
77793;BME280;66983;51.438;5.438;2024-01-15T03:31:52;100281.03;;;3.99;100.00
77793;BME280;66983;51.438;5.438;2024-01-15T03:34:17;100272.22;;;4.00;100.00
77793;BME280;66983;51.438;5.438;2024-01-15T03:36:43;100273.13;;;3.99;100.00
77793;BME280;66983;51.438;5.438;2024-01-15T03:39:09;100267.78;;;4.02;100.00
77793;BME280;66983;51.438;5.438;2024-01-15T03:41:34;100276.59;;;4.01;100.00
77793;BME280;66983;51.438;5.438;2024-01-15T03:44:00;100269.59;;;3.98;100.00
77793;BME280;66983;51.438;5.438;2024-01-15T03:46:25;100272.31;;;3.95;100.00
77793;BME280;66983;51.438;5.438;2024-01-15T03:48:51;100269.63;;;3.97;100.00
77793;BME280;66983;51.438;5.438;2024-01-15T03:51:19;100274.91;;;3.97;100.00
77793;BME280;66983;51.438;5.438;2024-01-15T03:53:45;100273.09;;;4.00;100.00
77793;BME280;66983;51.438;5.438;2024-01-15T03:56:11;100263.34;;;4.04;100.00
77793;BME280;66983;51.438;5.438;2024-01-15T03:58:36;100259.88;;;4.02;100.00
77793;BME280;66983;51.438;5.438;2024-01-15T04:01:02;100256.34;;;4.03;100.00
77793;BME280;66983;51.438;5.438;2024-01-15T04:03:27;100265.13;;;4.02;100.00
77793;BME280;66983;51.438;5.438;2024-01-15T04:05:53;100252.06;;;3.97;100.00
77793;BME280;66983;51.438;5.438;2024-01-15T04:08:18;100259.88;;;4.02;100.00
77793;BME280;66983;51.438;5.438;2024-01-15T04:10:44;100253.69;;;4.03;100.00
77793;BME280;66983;51.438;5.438;2024-01-15T04:13:09;100238.78;;;4.02;100.00
77793;BME280;66983;51.438;5.438;2024-01-15T04:15:35;100235.25;;;4.03;100.00
77793;BME280;66983;51.438;5.438;2024-01-15T04:18:02;100236.16;;;4.02;100.00
77793;BME280;66983;51.438;5.438;2024-01-15T04:20:28;100252.78;;;4.04;100.00
77793;BME280;66983;51.438;5.438;2024-01-15T04:22:54;100250.38;;;3.93;100.00
77793;BME280;66983;51.438;5.438;2024-01-15T04:25:19;100249.59;;;3.90;100.00
77793;BME280;66983;51.438;5.438;2024-01-15T04:27:45;100237.34;;;3.87;100.00
77793;BME280;66983;51.438;5.438;2024-01-15T04:30:11;100246.19;;;3.85;100.00
77793;BME280;66983;51.438;5.438;2024-01-15T04:32:36;100228.72;;;3.81;100.00
77793;BME280;66983;51.438;5.438;2024-01-15T04:35:02;100227.78;;;3.83;100.00
77793;BME280;66983;51.438;5.438;2024-01-15T04:37:27;100226.88;;;3.84;100.00
77793;BME280;66983;51.438;5.438;2024-01-15T04:39:53;100218.97;;;3.84;100.00
77793;BME280;66983;51.438;5.438;2024-01-15T04:42:21;100221.56;;;3.86;100.00
77793;BME280;66983;51.438;5.438;2024-01-15T04:44:47;100225.91;;;3.88;100.00
77793;BME280;66983;51.438;5.438;2024-01-15T04:47:12;100227.72;;;3.86;100.00
77793;BME280;66983;51.438;5.438;2024-01-15T04:49:38;100227.69;;;3.88;100.00
77793;BME280;66983;51.438;5.438;2024-01-15T04:52:03;100229.44;;;3.87;100.00
77793;BME280;66983;51.438;5.438;2024-01-15T04:54:29;100227.69;;;3.88;100.00
77793;BME280;66983;51.438;5.438;2024-01-15T04:56:54;100232.84;;;3.91;100.00
77793;BME280;66983;51.438;5.438;2024-01-15T04:59:20;100231.91;;;3.95;100.00
77793;BME280;66983;51.438;5.438;2024-01-15T05:01:45;100228.53;;;3.90;100.00
77793;BME280;66983;51.438;5.438;2024-01-15T05:04:11;100226.00;;;3.84;100.00
77793;BME280;66983;51.438;5.438;2024-01-15T05:06:36;100223.38;;;3.84;100.00
77793;BME280;66983;51.438;5.438;2024-01-15T05:09:02;100226.88;;;3.84;100.00
77793;BME280;66983;51.438;5.438;2024-01-15T05:11:29;100224.28;;;3.83;100.00
77793;BME280;66983;51.438;5.438;2024-01-15T05:13:54;100225.94;;;3.87;100.00
77793;BME280;66983;51.438;5.438;2024-01-15T05:16:20;100216.25;;;3.89;100.00
77793;BME280;66983;51.438;5.438;2024-01-15T05:18:45;100217.09;;;3.89;100.00
77793;BME280;66983;51.438;5.438;2024-01-15T05:21:11;100208.22;;;3.92;100.00
77793;BME280;66983;51.438;5.438;2024-01-15T05:23:38;100213.47;;;3.93;100.00
77793;BME280;66983;51.438;5.438;2024-01-15T05:26:03;100208.91;;;4.01;100.00
77793;BME280;66983;51.438;5.438;2024-01-15T05:28:29;100204.53;;;4.00;100.00
77793;BME280;66983;51.438;5.438;2024-01-15T05:30:55;100202.72;;;4.02;100.00
77793;BME280;66983;51.438;5.438;2024-01-15T05:33:22;100202.72;;;4.02;100.00
77793;BME280;66983;51.438;5.438;2024-01-15T05:35:47;100201.88;;;4.02;100.00
77793;BME280;66983;51.438;5.438;2024-01-15T05:38:14;100199.13;;;4.06;100.00
77793;BME280;66983;51.438;5.438;2024-01-15T05:40:40;100200.88;;;4.07;100.00
77793;BME280;66983;51.438;5.438;2024-01-15T05:43:05;100191.16;;;4.09;100.00
77793;BME280;66983;51.438;5.438;2024-01-15T05:45:31;100192.84;;;4.12;100.00
77793;BME280;66983;51.438;5.438;2024-01-15T05:47:56;100184.19;;;4.07;100.00
77793;BME280;66983;51.438;5.438;2024-01-15T05:50:22;100191.97;;;4.13;100.00
77793;BME280;66983;51.438;5.438;2024-01-15T05:52:48;100185.78;;;4.14;100.00
77793;BME280;66983;51.438;5.438;2024-01-15T05:55:13;100190.94;;;4.17;100.00
77793;BME280;66983;51.438;5.438;2024-01-15T05:57:39;100190.06;;;4.18;100.00
77793;BME280;66983;51.438;5.438;2024-01-15T06:00:05;100189.16;;;4.19;100.00
77793;BME280;66983;51.438;5.438;2024-01-15T06:02:31;100174.19;;;4.20;100.00
77793;BME280;66983;51.438;5.438;2024-01-15T06:04:57;100180.34;;;4.20;100.00
77793;BME280;66983;51.438;5.438;2024-01-15T06:07:22;100177.72;;;4.19;100.00
77793;BME280;66983;51.438;5.438;2024-01-15T06:09:48;100178.63;;;4.18;100.00
77793;BME280;66983;51.438;5.438;2024-01-15T06:12:13;100182.19;;;4.17;100.00
77793;BME280;66983;51.438;5.438;2024-01-15T06:14:39;100167.38;;;4.11;100.00
77793;BME280;66983;51.438;5.438;2024-01-15T06:17:04;100168.22;;;4.13;100.00
77793;BME280;66983;51.438;5.438;2024-01-15T06:19:30;100173.53;;;4.12;100.00
77793;BME280;66983;51.438;5.438;2024-01-15T06:21:55;100169.16;;;4.11;100.00
77793;BME280;66983;51.438;5.438;2024-01-15T06:24:21;100161.34;;;4.06;100.00
77793;BME280;66983;51.438;5.438;2024-01-15T06:26:47;100170.91;;;4.12;100.00
77793;BME280;66983;51.438;5.438;2024-01-15T06:29:13;100180.69;;;4.06;100.00
77793;BME280;66983;51.438;5.438;2024-01-15T06:31:38;100175.50;;;4.02;100.00
77793;BME280;66983;51.438;5.438;2024-01-15T06:34:04;100170.28;;;3.99;100.00
77793;BME280;66983;51.438;5.438;2024-01-15T06:36:29;100176.56;;;3.93;100.00
77793;BME280;66983;51.438;5.438;2024-01-15T06:38:55;100171.44;;;3.89;100.00
77793;BME280;66983;51.438;5.438;2024-01-15T06:41:21;100172.31;;;3.88;100.00
77793;BME280;66983;51.438;5.438;2024-01-15T06:43:47;100168.00;;;3.85;100.00
77793;BME280;66983;51.438;5.438;2024-01-15T06:46:15;100170.66;;;3.84;100.00
77793;BME280;66983;51.438;5.438;2024-01-15T06:48:44;100166.28;;;3.83;100.00
77793;BME280;66983;51.438;5.438;2024-01-15T06:51:10;100171.56;;;3.83;100.00
77793;BME280;66983;51.438;5.438;2024-01-15T06:53:35;100174.16;;;3.84;100.00
77793;BME280;66983;51.438;5.438;2024-01-15T06:56:01;100175.94;;;3.84;100.00
77793;BME280;66983;51.438;5.438;2024-01-15T06:58:26;100166.25;;;3.84;100.00
77793;BME280;66983;51.438;5.438;2024-01-15T07:00:52;100170.66;;;3.84;100.00
77793;BME280;66983;51.438;5.438;2024-01-15T07:03:17;100166.28;;;3.83;100.00
77793;BME280;66983;51.438;5.438;2024-01-15T07:05:43;100173.31;;;3.82;100.00
77793;BME280;66983;51.438;5.438;2024-01-15T07:08:08;100149.84;;;3.71;100.00
77793;BME280;66983;51.438;5.438;2024-01-15T07:10:34;100161.16;;;3.77;100.00
77793;BME280;66983;51.438;5.438;2024-01-15T07:12:59;100161.97;;;3.79;100.00
77793;BME280;66983;51.438;5.438;2024-01-15T07:15:25;100176.09;;;3.76;100.00
77793;BME280;66983;51.438;5.438;2024-01-15T07:17:50;100172.59;;;3.75;100.00
77793;BME280;66983;51.438;5.438;2024-01-15T07:20:16;100170.91;;;3.71;100.00
77793;BME280;66983;51.438;5.438;2024-01-15T07:22:42;100162.94;;;3.74;100.00
77793;BME280;66983;51.438;5.438;2024-01-15T07:25:08;100173.50;;;3.74;100.00
77793;BME280;66983;51.438;5.438;2024-01-15T07:27:33;100180.59;;;3.71;100.00
77793;BME280;66983;51.438;5.438;2024-01-15T07:29:59;100172.78;;;3.66;100.00
77793;BME280;66983;51.438;5.438;2024-01-15T07:32:24;100174.66;;;3.61;100.00
77793;BME280;66983;51.438;5.438;2024-01-15T07:34:50;100165.94;;;3.59;100.00
77793;BME280;66983;51.438;5.438;2024-01-15T07:37:15;100160.78;;;3.53;100.00
77793;BME280;66983;51.438;5.438;2024-01-15T07:39:41;100168.69;;;3.53;100.00
77793;BME280;66983;51.438;5.438;2024-01-15T07:42:06;100178.19;;;3.60;100.00
77793;BME280;66983;51.438;5.438;2024-01-15T07:44:33;100174.72;;;3.58;100.00
77793;BME280;66983;51.438;5.438;2024-01-15T07:46:59;100161.81;;;3.46;100.00
77793;BME280;66983;51.438;5.438;2024-01-15T07:49:24;100182.66;;;3.57;100.00
77793;BME280;66983;51.438;5.438;2024-01-15T07:51:50;100185.31;;;3.57;100.00
77793;BME280;66983;51.438;5.438;2024-01-15T07:54:15;100180.13;;;3.52;100.00
77793;BME280;66983;51.438;5.438;2024-01-15T07:57:00;100182.66;;;3.57;100.00
77793;BME280;66983;51.438;5.438;2024-01-15T07:59:27;100196.66;;;3.60;100.00
77793;BME280;66983;51.438;5.438;2024-01-15T08:01:53;100189.69;;;3.56;100.00
77793;BME280;66983;51.438;5.438;2024-01-15T08:04:19;100188.75;;;3.60;100.00
77793;BME280;66983;51.438;5.438;2024-01-15T08:06:45;100202.75;;;3.62;100.00
77793;BME280;66983;51.438;5.438;2024-01-15T08:09:11;100202.66;;;3.65;100.00
77793;BME280;66983;51.438;5.438;2024-01-15T08:11:41;100186.16;;;3.57;100.00
77793;BME280;66983;51.438;5.438;2024-01-15T08:14:08;100203.63;;;3.63;100.00
77793;BME280;66983;51.438;5.438;2024-01-15T08:16:34;100202.66;;;3.65;100.00
77793;BME280;66983;51.438;5.438;2024-01-15T08:18:59;100199.28;;;3.60;100.00
77793;BME280;66983;51.438;5.438;2024-01-15T08:21:25;100196.53;;;3.65;100.00
77793;BME280;66983;51.438;5.438;2024-01-15T08:23:50;100201.75;;;3.66;100.00
77793;BME280;66983;51.438;5.438;2024-01-15T08:26:16;100218.56;;;3.62;100.00
77793;BME280;66983;51.438;5.438;2024-01-15T08:28:41;100198.47;;;3.57;100.00
77793;BME280;66983;51.438;5.438;2024-01-15T08:31:07;100201.06;;;3.58;100.00
77793;BME280;66983;51.438;5.438;2024-01-15T08:33:33;100204.56;;;3.60;100.00
77793;BME280;66983;51.438;5.438;2024-01-15T08:35:58;100208.81;;;3.64;100.00
77793;BME280;66983;51.438;5.438;2024-01-15T08:38:24;100221.13;;;3.64;100.00
77793;BME280;66983;51.438;5.438;2024-01-15T08:40:50;100214.22;;;3.60;100.00
77793;BME280;66983;51.438;5.438;2024-01-15T08:43:16;100215.16;;;3.57;100.00
77793;BME280;66983;51.438;5.438;2024-01-15T08:45:42;100215.22;;;3.54;100.00
77793;BME280;66983;51.438;5.438;2024-01-15T08:48:07;100221.34;;;3.55;100.00
77793;BME280;66983;51.438;5.438;2024-01-15T08:50:33;100222.34;;;3.49;100.00
77793;BME280;66983;51.438;5.438;2024-01-15T08:52:59;100219.72;;;3.48;100.00
77793;BME280;66983;51.438;5.438;2024-01-15T08:55:24;100215.47;;;3.40;100.00
77793;BME280;66983;51.438;5.438;2024-01-15T08:57:50;100210.22;;;3.39;100.00
77793;BME280;66983;51.438;5.438;2024-01-15T09:00:16;100217.22;;;3.40;100.00
77793;BME280;66983;51.438;5.438;2024-01-15T09:02:42;100219.84;;;3.41;100.00
77793;BME280;66983;51.438;5.438;2024-01-15T09:05:08;100213.63;;;3.46;100.00
77793;BME280;66983;51.438;5.438;2024-01-15T09:07:33;100210.88;;;3.52;100.00
77793;BME280;66983;51.438;5.438;2024-01-15T09:09:59;100226.63;;;3.55;100.00
77793;BME280;66983;51.438;5.438;2024-01-15T09:12:25;100233.66;;;3.54;100.00
77793;BME280;66983;51.438;5.438;2024-01-15T09:14:51;100238.13;;;3.49;100.00
77793;BME280;66983;51.438;5.438;2024-01-15T09:17:17;100222.34;;;3.49;100.00
77793;BME280;66983;51.438;5.438;2024-01-15T09:19:43;100237.28;;;3.49;100.00
77793;BME280;66983;51.438;5.438;2024-01-15T09:22:09;100242.50;;;3.50;100.00
77793;BME280;66983;51.438;5.438;2024-01-15T09:24:35;100237.34;;;3.44;100.00
77793;BME280;66983;51.438;5.438;2024-01-15T09:27:00;100221.53;;;3.46;100.00
77793;BME280;66983;51.438;5.438;2024-01-15T09:29:26;100238.06;;;3.52;100.00
77793;BME280;66983;51.438;5.438;2024-01-15T09:31:52;100233.75;;;3.50;100.00
77793;BME280;66983;51.438;5.438;2024-01-15T09:34:17;100238.06;;;3.52;100.00
77793;BME280;66983;51.438;5.438;2024-01-15T09:36:43;100238.94;;;3.53;100.00
77793;BME280;66983;51.438;5.438;2024-01-15T09:39:09;100234.56;;;3.52;100.00
77793;BME280;66983;51.438;5.438;2024-01-15T09:41:37;100234.66;;;3.47;100.00
77793;BME280;66983;51.438;5.438;2024-01-15T09:44:03;100226.72;;;3.49;100.00
77793;BME280;66983;51.438;5.438;2024-01-15T09:46:31;100228.47;;;3.50;100.00
77793;BME280;66983;51.438;5.438;2024-01-15T09:48:58;100227.53;;;3.52;100.00
77793;BME280;66983;51.438;5.438;2024-01-15T09:51:24;100225.78;;;3.53;100.00
77793;BME280;66983;51.438;5.438;2024-01-15T09:53:51;100220.53;;;3.51;100.00
77793;BME280;66983;51.438;5.438;2024-01-15T09:56:17;100240.59;;;3.58;100.00
77793;BME280;66983;51.438;5.438;2024-01-15T09:58:44;100244.00;;;3.63;100.00
77793;BME280;66983;51.438;5.438;2024-01-15T10:01:11;100234.38;;;3.62;100.00
77793;BME280;66983;51.438;5.438;2024-01-15T10:03:39;100249.22;;;3.65;100.00
77793;BME280;66983;51.438;5.438;2024-01-15T10:06:07;100248.25;;;3.69;100.00
77793;BME280;66983;51.438;5.438;2024-01-15T10:08:36;100237.66;;;3.72;100.00
77793;BME280;66983;51.438;5.438;2024-01-15T10:11:02;100206.41;;;3.55;100.00
77793;BME280;66983;51.438;5.438;2024-01-15T10:13:30;100242.91;;;3.73;100.00
77793;BME280;66983;51.438;5.438;2024-01-15T10:15:56;100235.84;;;3.75;100.00
77793;BME280;66983;51.438;5.438;2024-01-15T10:18:23;100237.56;;;3.77;100.00
77793;BME280;66983;51.438;5.438;2024-01-15T10:20:49;100235.78;;;3.79;100.00
77793;BME280;66983;51.438;5.438;2024-01-15T10:23:15;100233.97;;;3.81;100.00
77793;BME280;66983;51.438;5.438;2024-01-15T10:25:44;100233.84;;;3.87;100.00
77793;BME280;66983;51.438;5.438;2024-01-15T10:28:09;100233.81;;;3.88;100.00
77793;BME280;66983;51.438;5.438;2024-01-15T10:30:35;100233.84;;;3.87;100.00
77793;BME280;66983;51.438;5.438;2024-01-15T10:33:02;100223.31;;;3.87;100.00
77793;BME280;66983;51.438;5.438;2024-01-15T10:35:33;100218.19;;;3.79;100.00
77793;BME280;66983;51.438;5.438;2024-01-15T10:38:00;100225.91;;;3.88;100.00
77793;BME280;66983;51.438;5.438;2024-01-15T10:40:26;100208.50;;;3.81;100.00
77793;BME280;66983;51.438;5.438;2024-01-15T10:42:52;100229.31;;;3.92;100.00
77793;BME280;66983;51.438;5.438;2024-01-15T10:45:19;100227.56;;;3.92;100.00
77793;BME280;66983;51.438;5.438;2024-01-15T10:47:44;100237.94;;;4.00;100.00
77793;BME280;66983;51.438;5.438;2024-01-15T10:50:11;100225.56;;;4.03;100.00
77793;BME280;66983;51.438;5.438;2024-01-15T10:52:38;100234.34;;;4.04;100.00
77793;BME280;66983;51.438;5.438;2024-01-15T10:55:07;100229.13;;;4.01;100.00
77793;BME280;66983;51.438;5.438;2024-01-15T10:57:37;100230.94;;;3.99;100.00
77793;BME280;66983;51.438;5.438;2024-01-15T11:00:07;100226.50;;;4.01;100.00
77793;BME280;66983;51.438;5.438;2024-01-15T11:02:36;100198.69;;;3.88;100.00
77793;BME280;66983;51.438;5.438;2024-01-15T11:05:02;100218.66;;;3.98;100.00
77793;BME280;66983;51.438;5.438;2024-01-15T11:07:30;100224.78;;;3.98;100.00
77793;BME280;66983;51.438;5.438;2024-01-15T11:09:56;100234.47;;;3.98;100.00
77793;BME280;66983;51.438;5.438;2024-01-15T11:12:24;100224.88;;;3.94;100.00
77793;BME280;66983;51.438;5.438;2024-01-15T11:14:50;100221.41;;;3.92;100.00
77793;BME280;66983;51.438;5.438;2024-01-15T11:17:17;100235.50;;;3.91;100.00
77793;BME280;66983;51.438;5.438;2024-01-15T11:19:45;100246.03;;;3.91;100.00
77793;BME280;66983;51.438;5.438;2024-01-15T11:25:19;100235.44;;;3.94;100.00
77793;BME280;66983;51.438;5.438;2024-01-15T11:27:46;100244.00;;;4.05;100.00
77793;BME280;66983;51.438;5.438;2024-01-15T11:30:14;100253.38;;;4.17;100.00
77793;BME280;66983;51.438;5.438;2024-01-15T11:32:40;100254.91;;;4.27;100.00
77793;BME280;66983;51.438;5.438;2024-01-15T11:35:13;100261.06;;;4.27;100.00
77793;BME280;66983;51.438;5.438;2024-01-15T11:40:22;100268.25;;;4.19;100.00
77793;BME280;66983;51.438;5.438;2024-01-15T11:42:48;100270.28;;;4.08;100.00
77793;BME280;66983;51.438;5.438;2024-01-15T11:45:19;100265.22;;;3.99;100.00
77793;BME280;66983;51.438;5.438;2024-01-15T11:47:54;100249.66;;;3.87;100.00
77793;BME280;66983;51.438;5.438;2024-01-15T11:50:29;100243.03;;;3.67;100.00
77793;BME280;66983;51.438;5.438;2024-01-15T11:53:00;100262.19;;;3.75;100.00
77793;BME280;66983;51.438;5.438;2024-01-15T11:55:30;100260.50;;;3.71;100.00
77793;BME280;66983;51.438;5.438;2024-01-15T11:57:57;100257.06;;;3.68;100.00
77793;BME280;66983;51.438;5.438;2024-01-15T12:00:26;100267.47;;;3.75;100.00
77793;BME280;66983;51.438;5.438;2024-01-15T12:02:51;100259.66;;;3.69;100.00
77793;BME280;66983;51.438;5.438;2024-01-15T12:05:18;100266.63;;;3.73;100.00
77793;BME280;66983;51.438;5.438;2024-01-15T12:07:46;100269.19;;;3.77;100.00
77793;BME280;66983;51.438;5.438;2024-01-15T12:10:20;100265.66;;;3.78;100.00
77793;BME280;66983;51.438;5.438;2024-01-15T12:13:00;100276.91;;;3.87;100.00
77793;BME280;66983;51.438;5.438;2024-01-15T12:15:29;100267.19;;;3.89;100.00
77793;BME280;66983;51.438;5.438;2024-01-15T12:17:56;100267.13;;;3.91;100.00
77793;BME280;66983;51.438;5.438;2024-01-15T12:20:26;100263.56;;;3.93;100.00
77793;BME280;66983;51.438;5.438;2024-01-15T12:22:52;100261.78;;;3.94;100.00
77793;BME280;66983;51.438;5.438;2024-01-15T12:25:19;100263.50;;;3.96;100.00
77793;BME280;66983;51.438;5.438;2024-01-15T12:27:45;100259.94;;;3.99;100.00
77793;BME280;66983;51.438;5.438;2024-01-15T12:30:13;100266.91;;;4.01;100.00
77793;BME280;66983;51.438;5.438;2024-01-15T12:32:42;100266.88;;;4.03;100.00
77793;BME280;66983;51.438;5.438;2024-01-15T12:35:10;100270.38;;;4.03;100.00
77793;BME280;66983;51.438;5.438;2024-01-15T12:37:36;100264.34;;;3.98;100.00
77793;BME280;66983;51.438;5.438;2024-01-15T12:40:06;100267.84;;;3.99;100.00
77793;BME280;66983;51.438;5.438;2024-01-15T12:42:36;100267.78;;;4.02;100.00
77793;BME280;66983;51.438;5.438;2024-01-15T12:45:03;100275.59;;;4.06;100.00
77793;BME280;66983;51.438;5.438;2024-01-15T12:47:30;100266.75;;;4.09;100.00
77793;BME280;66983;51.438;5.438;2024-01-15T12:49:58;100279.91;;;4.11;100.00
77793;BME280;66983;51.438;5.438;2024-01-15T12:52:27;100275.44;;;4.14;100.00